sensor_id;sensor_type;location;lat;lon;timestamp;P1;durP1;ratioP1;P2;durP2;ratioP2
18378;SDS011;27025;51.986;5.984;2023-04-24T00:02:13;10.23;;;9.37;;
18378;SDS011;27025;51.986;5.984;2023-04-24T00:04:41;10.20;;;9.40;;
18378;SDS011;27025;51.986;5.984;2023-04-24T00:07:09;11.90;;;10.95;;
18378;SDS011;27025;51.986;5.984;2023-04-24T00:09:35;11.52;;;10.63;;
18378;SDS011;27025;51.986;5.984;2023-04-24T00:12:01;12.10;;;11.10;;
18378;SDS011;27025;51.986;5.984;2023-04-24T00:14:29;12.80;;;11.65;;
18378;SDS011;27025;51.986;5.984;2023-04-24T00:16:55;12.57;;;11.55;;
18378;SDS011;27025;51.986;5.984;2023-04-24T00:19:21;13.23;;;12.02;;
18378;SDS011;27025;51.986;5.984;2023-04-24T00:21:48;12.13;;;11.13;;
18378;SDS011;27025;51.986;5.984;2023-04-24T00:24:17;12.52;;;11.52;;
18378;SDS011;27025;51.986;5.984;2023-04-24T00:26:43;11.25;;;10.35;;
18378;SDS011;27025;51.986;5.984;2023-04-24T00:29:09;8.13;;;7.43;;
18378;SDS011;27025;51.986;5.984;2023-04-24T00:31:35;6.70;;;6.13;;
18378;SDS011;27025;51.986;5.984;2023-04-24T00:34:04;7.18;;;6.57;;
18378;SDS011;27025;51.986;5.984;2023-04-24T00:36:34;7.20;;;6.67;;
18378;SDS011;27025;51.986;5.984;2023-04-24T00:39:00;7.38;;;6.78;;
18378;SDS011;27025;51.986;5.984;2023-04-24T00:41:27;8.95;;;8.25;;
18378;SDS011;27025;51.986;5.984;2023-04-24T00:43:53;8.15;;;7.45;;
18378;SDS011;27025;51.986;5.984;2023-04-24T00:46:19;6.85;;;6.35;;
18378;SDS011;27025;51.986;5.984;2023-04-24T00:48:45;7.20;;;6.70;;
18378;SDS011;27025;51.986;5.984;2023-04-24T00:51:12;6.35;;;5.80;;
18378;SDS011;27025;51.986;5.984;2023-04-24T00:53:38;5.45;;;5.05;;
18378;SDS011;27025;51.986;5.984;2023-04-24T00:56:04;5.72;;;5.32;;
18378;SDS011;27025;51.986;5.984;2023-04-24T00:58:33;6.10;;;5.60;;
18378;SDS011;27025;51.986;5.984;2023-04-24T01:00:59;6.82;;;6.22;;
18378;SDS011;27025;51.986;5.984;2023-04-24T01:03:26;7.70;;;7.10;;
18378;SDS011;27025;51.986;5.984;2023-04-24T01:05:53;9.02;;;8.27;;
18378;SDS011;27025;51.986;5.984;2023-04-24T01:08:19;10.75;;;9.85;;
18378;SDS011;27025;51.986;5.984;2023-04-24T01:10:46;13.70;;;12.32;;
18378;SDS011;27025;51.986;5.984;2023-04-24T01:13:13;16.73;;;15.18;;
18378;SDS011;27025;51.986;5.984;2023-04-24T01:15:39;20.48;;;18.50;;
18378;SDS011;27025;51.986;5.984;2023-04-24T01:18:05;24.83;;;22.42;;
18378;SDS011;27025;51.986;5.984;2023-04-24T01:20:31;24.63;;;22.33;;
18378;SDS011;27025;51.986;5.984;2023-04-24T01:22:58;25.85;;;23.35;;
18378;SDS011;27025;51.986;5.984;2023-04-24T01:25:25;24.52;;;22.23;;
18378;SDS011;27025;51.986;5.984;2023-04-24T01:27:51;25.50;;;22.98;;
18378;SDS011;27025;51.986;5.984;2023-04-24T01:30:17;25.15;;;22.77;;
18378;SDS011;27025;51.986;5.984;2023-04-24T01:32:43;25.67;;;23.20;;
18378;SDS011;27025;51.986;5.984;2023-04-24T01:35:10;25.95;;;23.55;;
18378;SDS011;27025;51.986;5.984;2023-04-24T01:37:36;25.95;;;23.48;;
18378;SDS011;27025;51.986;5.984;2023-04-24T01:40:04;26.90;;;24.23;;
18378;SDS011;27025;51.986;5.984;2023-04-24T01:42:30;28.17;;;25.47;;
18378;SDS011;27025;51.986;5.984;2023-04-24T01:44:56;27.02;;;24.52;;
18378;SDS011;27025;51.986;5.984;2023-04-24T01:47:23;27.02;;;24.63;;
18378;SDS011;27025;51.986;5.984;2023-04-24T01:49:49;25.08;;;22.88;;
18378;SDS011;27025;51.986;5.984;2023-04-24T01:52:16;22.07;;;20.13;;
18378;SDS011;27025;51.986;5.984;2023-04-24T01:54:43;22.73;;;20.73;;
18378;SDS011;27025;51.986;5.984;2023-04-24T01:57:09;22.00;;;20.10;;
18378;SDS011;27025;51.986;5.984;2023-04-24T01:59:36;22.58;;;20.58;;
18378;SDS011;27025;51.986;5.984;2023-04-24T02:02:02;24.55;;;22.25;;
18378;SDS011;27025;51.986;5.984;2023-04-24T02:04:28;24.67;;;22.30;;
18378;SDS011;27025;51.986;5.984;2023-04-24T02:06:55;26.33;;;23.85;;
18378;SDS011;27025;51.986;5.984;2023-04-24T02:09:21;26.90;;;24.20;;
18378;SDS011;27025;51.986;5.984;2023-04-24T02:11:47;27.48;;;24.77;;
18378;SDS011;27025;51.986;5.984;2023-04-24T02:14:13;27.45;;;24.88;;
18378;SDS011;27025;51.986;5.984;2023-04-24T02:16:39;29.27;;;26.48;;
18378;SDS011;27025;51.986;5.984;2023-04-24T02:19:05;29.08;;;26.40;;
18378;SDS011;27025;51.986;5.984;2023-04-24T02:21:31;29.25;;;26.45;;
18378;SDS011;27025;51.986;5.984;2023-04-24T02:23:57;29.88;;;27.08;;
18378;SDS011;27025;51.986;5.984;2023-04-24T02:26:23;29.83;;;26.92;;
18378;SDS011;27025;51.986;5.984;2023-04-24T02:28:49;30.00;;;27.10;;
18378;SDS011;27025;51.986;5.984;2023-04-24T02:31:15;30.52;;;27.52;;
18378;SDS011;27025;51.986;5.984;2023-04-24T02:33:41;30.53;;;27.63;;
18378;SDS011;27025;51.986;5.984;2023-04-24T02:36:08;30.83;;;27.73;;
18378;SDS011;27025;51.986;5.984;2023-04-24T02:38:34;33.08;;;29.88;;
18378;SDS011;27025;51.986;5.984;2023-04-24T02:41:00;31.25;;;28.15;;
18378;SDS011;27025;51.986;5.984;2023-04-24T02:43:27;31.75;;;28.58;;
18378;SDS011;27025;51.986;5.984;2023-04-24T02:45:53;31.13;;;28.02;;
18378;SDS011;27025;51.986;5.984;2023-04-24T02:48:19;30.42;;;27.48;;
18378;SDS011;27025;51.986;5.984;2023-04-24T02:50:46;31.88;;;28.67;;
18378;SDS011;27025;51.986;5.984;2023-04-24T02:53:12;28.90;;;26.02;;
18378;SDS011;27025;51.986;5.984;2023-04-24T02:55:38;29.50;;;26.65;;
18378;SDS011;27025;51.986;5.984;2023-04-24T02:58:04;29.15;;;26.27;;
18378;SDS011;27025;51.986;5.984;2023-04-24T03:00:31;28.75;;;26.00;;
18378;SDS011;27025;51.986;5.984;2023-04-24T03:02:57;28.73;;;25.92;;
18378;SDS011;27025;51.986;5.984;2023-04-24T03:05:23;29.53;;;26.63;;
18378;SDS011;27025;51.986;5.984;2023-04-24T03:07:49;29.42;;;26.52;;
18378;SDS011;27025;51.986;5.984;2023-04-24T03:10:17;28.45;;;25.60;;
18378;SDS011;27025;51.986;5.984;2023-04-24T03:12:43;28.92;;;26.13;;
18378;SDS011;27025;51.986;5.984;2023-04-24T03:15:09;26.95;;;24.25;;
18378;SDS011;27025;51.986;5.984;2023-04-24T03:17:35;27.25;;;24.55;;
18378;SDS011;27025;51.986;5.984;2023-04-24T03:20:02;27.02;;;24.20;;
18378;SDS011;27025;51.986;5.984;2023-04-24T03:22:30;28.63;;;25.83;;
18378;SDS011;27025;51.986;5.984;2023-04-24T03:24:57;28.63;;;25.83;;
18378;SDS011;27025;51.986;5.984;2023-04-24T03:27:23;28.85;;;26.02;;
18378;SDS011;27025;51.986;5.984;2023-04-24T03:29:49;28.48;;;25.75;;
18378;SDS011;27025;51.986;5.984;2023-04-24T03:32:22;29.70;;;26.75;;
18378;SDS011;27025;51.986;5.984;2023-04-24T03:34:48;32.03;;;28.63;;
18378;SDS011;27025;51.986;5.984;2023-04-24T03:37:15;31.48;;;28.30;;
18378;SDS011;27025;51.986;5.984;2023-04-24T03:39:41;30.10;;;27.10;;
18378;SDS011;27025;51.986;5.984;2023-04-24T03:42:07;33.83;;;30.42;;
18378;SDS011;27025;51.986;5.984;2023-04-24T03:44:33;36.45;;;32.83;;
18378;SDS011;27025;51.986;5.984;2023-04-24T03:47:00;40.00;;;35.90;;
18378;SDS011;27025;51.986;5.984;2023-04-24T03:49:26;42.13;;;37.65;;
18378;SDS011;27025;51.986;5.984;2023-04-24T03:51:52;43.28;;;38.88;;
18378;SDS011;27025;51.986;5.984;2023-04-24T03:54:18;45.50;;;40.80;;
18378;SDS011;27025;51.986;5.984;2023-04-24T03:56:45;48.17;;;43.13;;
18378;SDS011;27025;51.986;5.984;2023-04-24T03:59:11;48.47;;;43.63;;
18378;SDS011;27025;51.986;5.984;2023-04-24T04:01:38;52.33;;;46.70;;
18378;SDS011;27025;51.986;5.984;2023-04-24T04:04:04;53.47;;;47.70;;
18378;SDS011;27025;51.986;5.984;2023-04-24T04:06:31;51.17;;;45.77;;
18378;SDS011;27025;51.986;5.984;2023-04-24T04:08:57;53.17;;;47.45;;
18378;SDS011;27025;51.986;5.984;2023-04-24T04:11:23;51.70;;;46.25;;
18378;SDS011;27025;51.986;5.984;2023-04-24T04:13:49;50.65;;;45.40;;
18378;SDS011;27025;51.986;5.984;2023-04-24T04:16:15;49.45;;;44.45;;
18378;SDS011;27025;51.986;5.984;2023-04-24T04:18:42;50.08;;;44.78;;
18378;SDS011;27025;51.986;5.984;2023-04-24T04:21:08;47.50;;;42.83;;
18378;SDS011;27025;51.986;5.984;2023-04-24T04:23:34;48.85;;;43.80;;
18378;SDS011;27025;51.986;5.984;2023-04-24T04:26:01;49.47;;;44.30;;
18378;SDS011;27025;51.986;5.984;2023-04-24T04:28:27;46.08;;;41.35;;
18378;SDS011;27025;51.986;5.984;2023-04-24T04:30:53;45.72;;;41.13;;
18378;SDS011;27025;51.986;5.984;2023-04-24T04:33:20;45.60;;;41.05;;
18378;SDS011;27025;51.986;5.984;2023-04-24T04:35:46;45.88;;;41.13;;
18378;SDS011;27025;51.986;5.984;2023-04-24T04:38:21;45.15;;;40.67;;
18378;SDS011;27025;51.986;5.984;2023-04-24T04:40:47;44.50;;;39.97;;
18378;SDS011;27025;51.986;5.984;2023-04-24T04:43:14;42.30;;;37.97;;
18378;SDS011;27025;51.986;5.984;2023-04-24T04:45:41;43.75;;;39.13;;
18378;SDS011;27025;51.986;5.984;2023-04-24T04:48:08;42.67;;;38.17;;
18378;SDS011;27025;51.986;5.984;2023-04-24T04:50:37;45.13;;;40.45;;
18378;SDS011;27025;51.986;5.984;2023-04-24T04:53:03;45.38;;;40.65;;
18378;SDS011;27025;51.986;5.984;2023-04-24T04:55:30;41.90;;;37.70;;
18378;SDS011;27025;51.986;5.984;2023-04-24T04:57:56;42.80;;;38.27;;
18378;SDS011;27025;51.986;5.984;2023-04-24T05:00:22;42.60;;;38.00;;
18378;SDS011;27025;51.986;5.984;2023-04-24T05:02:50;43.78;;;39.13;;
18378;SDS011;27025;51.986;5.984;2023-04-24T05:05:19;42.03;;;37.47;;
18378;SDS011;27025;51.986;5.984;2023-04-24T05:07:45;42.30;;;37.15;;
18378;SDS011;27025;51.986;5.984;2023-04-24T05:10:11;41.40;;;36.92;;
18378;SDS011;27025;51.986;5.984;2023-04-24T05:12:37;44.22;;;39.53;;
18378;SDS011;27025;51.986;5.984;2023-04-24T05:15:03;40.08;;;35.67;;
18378;SDS011;27025;51.986;5.984;2023-04-24T05:17:30;37.47;;;33.63;;
18378;SDS011;27025;51.986;5.984;2023-04-24T05:19:56;38.70;;;34.55;;
18378;SDS011;27025;51.986;5.984;2023-04-24T05:22:24;38.95;;;34.25;;
18378;SDS011;27025;51.986;5.984;2023-04-24T05:24:50;42.80;;;36.80;;
18378;SDS011;27025;51.986;5.984;2023-04-24T05:27:17;40.08;;;35.13;;
18378;SDS011;27025;51.986;5.984;2023-04-24T05:29:45;37.97;;;33.67;;
18378;SDS011;27025;51.986;5.984;2023-04-24T05:32:11;36.15;;;32.25;;
18378;SDS011;27025;51.986;5.984;2023-04-24T05:34:37;30.53;;;26.47;;
18378;SDS011;27025;51.986;5.984;2023-04-24T05:37:03;29.60;;;24.67;;
18378;SDS011;27025;51.986;5.984;2023-04-24T05:39:33;28.90;;;24.37;;
18378;SDS011;27025;51.986;5.984;2023-04-24T05:42:00;27.87;;;24.00;;
18378;SDS011;27025;51.986;5.984;2023-04-24T05:44:26;28.87;;;25.73;;
18378;SDS011;27025;51.986;5.984;2023-04-24T05:46:52;29.77;;;25.07;;
18378;SDS011;27025;51.986;5.984;2023-04-24T05:49:20;29.97;;;25.53;;
18378;SDS011;27025;51.986;5.984;2023-04-24T05:51:46;26.43;;;22.73;;
18378;SDS011;27025;51.986;5.984;2023-04-24T05:54:12;27.77;;;22.97;;
18378;SDS011;27025;51.986;5.984;2023-04-24T05:56:38;26.17;;;22.83;;
18378;SDS011;27025;51.986;5.984;2023-04-24T05:59:04;26.70;;;21.03;;
18378;SDS011;27025;51.986;5.984;2023-04-24T06:01:30;22.60;;;20.07;;
18378;SDS011;27025;51.986;5.984;2023-04-24T06:03:57;25.07;;;21.07;;
18378;SDS011;27025;51.986;5.984;2023-04-24T06:06:26;24.70;;;19.97;;
18378;SDS011;27025;51.986;5.984;2023-04-24T06:08:52;26.23;;;21.47;;
18378;SDS011;27025;51.986;5.984;2023-04-24T06:11:18;25.70;;;21.47;;
18378;SDS011;27025;51.986;5.984;2023-04-24T06:13:44;26.97;;;21.60;;
18378;SDS011;27025;51.986;5.984;2023-04-24T06:16:10;31.23;;;26.27;;
18378;SDS011;27025;51.986;5.984;2023-04-24T06:18:36;26.60;;;23.70;;
18378;SDS011;27025;51.986;5.984;2023-04-24T06:21:03;26.15;;;23.35;;
18378;SDS011;27025;51.986;5.984;2023-04-24T06:23:30;21.10;;;18.33;;
18378;SDS011;27025;51.986;5.984;2023-04-24T06:25:57;23.65;;;21.15;;
18378;SDS011;27025;51.986;5.984;2023-04-24T06:28:23;22.77;;;20.38;;
18378;SDS011;27025;51.986;5.984;2023-04-24T06:30:50;25.33;;;22.42;;
18378;SDS011;27025;51.986;5.984;2023-04-24T06:33:16;23.63;;;21.23;;
18378;SDS011;27025;51.986;5.984;2023-04-24T06:35:42;21.98;;;19.58;;
18378;SDS011;27025;51.986;5.984;2023-04-24T06:38:08;22.52;;;20.10;;
18378;SDS011;27025;51.986;5.984;2023-04-24T06:40:34;22.42;;;20.10;;
18378;SDS011;27025;51.986;5.984;2023-04-24T06:43:00;22.63;;;20.23;;
18378;SDS011;27025;51.986;5.984;2023-04-24T06:45:28;20.87;;;18.73;;
18378;SDS011;27025;51.986;5.984;2023-04-24T06:47:54;20.83;;;18.70;;
18378;SDS011;27025;51.986;5.984;2023-04-24T06:50:21;20.30;;;18.27;;
18378;SDS011;27025;51.986;5.984;2023-04-24T06:52:47;19.65;;;17.63;;
18378;SDS011;27025;51.986;5.984;2023-04-24T06:55:13;20.13;;;18.02;;
18378;SDS011;27025;51.986;5.984;2023-04-24T06:57:41;19.92;;;18.02;;
18378;SDS011;27025;51.986;5.984;2023-04-24T07:00:07;18.85;;;16.90;;
18378;SDS011;27025;51.986;5.984;2023-04-24T07:02:34;18.20;;;15.35;;
18378;SDS011;27025;51.986;5.984;2023-04-24T07:05:00;14.60;;;12.93;;
18378;SDS011;27025;51.986;5.984;2023-04-24T07:07:26;13.80;;;12.33;;
18378;SDS011;27025;51.986;5.984;2023-04-24T07:09:53;12.13;;;10.87;;
18378;SDS011;27025;51.986;5.984;2023-04-24T07:12:19;9.73;;;8.67;;
18378;SDS011;27025;51.986;5.984;2023-04-24T07:14:46;9.80;;;8.20;;
18378;SDS011;27025;51.986;5.984;2023-04-24T07:17:13;10.87;;;9.17;;
18378;SDS011;27025;51.986;5.984;2023-04-24T07:19:39;8.77;;;7.77;;
18378;SDS011;27025;51.986;5.984;2023-04-24T07:22:05;7.00;;;6.30;;
18378;SDS011;27025;51.986;5.984;2023-04-24T07:24:32;7.00;;;6.03;;
18378;SDS011;27025;51.986;5.984;2023-04-24T07:26:58;7.90;;;6.20;;
18378;SDS011;27025;51.986;5.984;2023-04-24T07:29:26;6.87;;;5.90;;
18378;SDS011;27025;51.986;5.984;2023-04-24T07:31:52;6.20;;;4.70;;
18378;SDS011;27025;51.986;5.984;2023-04-24T07:34:19;4.07;;;3.67;;
18378;SDS011;27025;51.986;5.984;2023-04-24T07:36:45;4.87;;;3.80;;
18378;SDS011;27025;51.986;5.984;2023-04-24T07:39:12;4.40;;;3.97;;
18378;SDS011;27025;51.986;5.984;2023-04-24T07:41:38;5.57;;;3.93;;
18378;SDS011;27025;51.986;5.984;2023-04-24T07:44:04;3.90;;;3.30;;
18378;SDS011;27025;51.986;5.984;2023-04-24T07:46:30;4.27;;;2.97;;
18378;SDS011;27025;51.986;5.984;2023-04-24T07:48:57;4.77;;;3.63;;
18378;SDS011;27025;51.986;5.984;2023-04-24T07:51:24;4.13;;;3.10;;
18378;SDS011;27025;51.986;5.984;2023-04-24T07:53:52;3.60;;;3.30;;
18378;SDS011;27025;51.986;5.984;2023-04-24T07:56:20;4.13;;;3.60;;
18378;SDS011;27025;51.986;5.984;2023-04-24T07:58:46;4.73;;;4.07;;
18378;SDS011;27025;51.986;5.984;2023-04-24T08:01:12;5.67;;;4.60;;
18378;SDS011;27025;51.986;5.984;2023-04-24T08:03:38;5.97;;;5.37;;
18378;SDS011;27025;51.986;5.984;2023-04-24T08:06:04;8.53;;;6.93;;
18378;SDS011;27025;51.986;5.984;2023-04-24T08:08:30;9.87;;;7.90;;
18378;SDS011;27025;51.986;5.984;2023-04-24T08:10:56;10.40;;;8.90;;
18378;SDS011;27025;51.986;5.984;2023-04-24T08:13:22;10.73;;;8.60;;
18378;SDS011;27025;51.986;5.984;2023-04-24T08:15:48;11.20;;;9.63;;
18378;SDS011;27025;51.986;5.984;2023-04-24T08:18:15;10.40;;;9.40;;
18378;SDS011;27025;51.986;5.984;2023-04-24T08:20:41;15.53;;;9.60;;
18378;SDS011;27025;51.986;5.984;2023-04-24T08:23:07;12.57;;;9.37;;
18378;SDS011;27025;51.986;5.984;2023-04-24T08:25:33;12.03;;;9.13;;
18378;SDS011;27025;51.986;5.984;2023-04-24T08:28:00;13.33;;;9.37;;
18378;SDS011;27025;51.986;5.984;2023-04-24T08:30:27;14.73;;;9.60;;
18378;SDS011;27025;51.986;5.984;2023-04-24T08:32:53;12.27;;;8.93;;
18378;SDS011;27025;51.986;5.984;2023-04-24T08:35:19;14.63;;;9.00;;
18378;SDS011;27025;51.986;5.984;2023-04-24T08:37:46;11.10;;;8.60;;
18378;SDS011;27025;51.986;5.984;2023-04-24T08:40:13;12.03;;;9.37;;
18378;SDS011;27025;51.986;5.984;2023-04-24T08:42:41;13.17;;;9.30;;
18378;SDS011;27025;51.986;5.984;2023-04-24T08:45:08;14.30;;;10.03;;
18378;SDS011;27025;51.986;5.984;2023-04-24T08:47:34;14.33;;;10.17;;
18378;SDS011;27025;51.986;5.984;2023-04-24T08:50:02;10.93;;;9.50;;
18378;SDS011;27025;51.986;5.984;2023-04-24T08:52:30;13.00;;;10.00;;
18378;SDS011;27025;51.986;5.984;2023-04-24T08:54:58;12.53;;;8.83;;
18378;SDS011;27025;51.986;5.984;2023-04-24T08:57:26;13.60;;;9.27;;
18378;SDS011;27025;51.986;5.984;2023-04-24T08:59:53;14.20;;;10.07;;
18378;SDS011;27025;51.986;5.984;2023-04-24T09:02:19;11.27;;;9.10;;
18378;SDS011;27025;51.986;5.984;2023-04-24T09:04:45;14.57;;;9.43;;
18378;SDS011;27025;51.986;5.984;2023-04-24T09:07:12;13.40;;;8.70;;
18378;SDS011;27025;51.986;5.984;2023-04-24T09:09:40;11.37;;;8.37;;
18378;SDS011;27025;51.986;5.984;2023-04-24T09:12:06;10.27;;;7.00;;
18378;SDS011;27025;51.986;5.984;2023-04-24T09:14:34;10.77;;;7.00;;
18378;SDS011;27025;51.986;5.984;2023-04-24T09:17:03;8.90;;;6.07;;
18378;SDS011;27025;51.986;5.984;2023-04-24T09:19:29;7.63;;;5.27;;
18378;SDS011;27025;51.986;5.984;2023-04-24T09:21:55;9.20;;;4.93;;
18378;SDS011;27025;51.986;5.984;2023-04-24T09:24:22;8.17;;;5.17;;
18378;SDS011;27025;51.986;5.984;2023-04-24T09:26:48;9.70;;;4.87;;
18378;SDS011;27025;51.986;5.984;2023-04-24T09:29:17;10.77;;;5.37;;
18378;SDS011;27025;51.986;5.984;2023-04-24T09:31:44;12.43;;;5.93;;
18378;SDS011;27025;51.986;5.984;2023-04-24T09:34:11;13.17;;;5.70;;
18378;SDS011;27025;51.986;5.984;2023-04-24T09:36:38;14.20;;;5.47;;
18378;SDS011;27025;51.986;5.984;2023-04-24T09:39:14;12.77;;;5.27;;
18378;SDS011;27025;51.986;5.984;2023-04-24T09:41:53;14.43;;;5.60;;
18378;SDS011;27025;51.986;5.984;2023-04-24T09:44:22;12.20;;;4.37;;
18378;SDS011;27025;51.986;5.984;2023-04-24T09:46:52;9.37;;;4.20;;
18378;SDS011;27025;51.986;5.984;2023-04-24T09:49:22;9.50;;;4.20;;
18378;SDS011;27025;51.986;5.984;2023-04-24T09:51:49;15.17;;;4.53;;
18378;SDS011;27025;51.986;5.984;2023-04-24T09:54:16;12.03;;;4.13;;
18378;SDS011;27025;51.986;5.984;2023-04-24T09:56:46;15.30;;;4.30;;
18378;SDS011;27025;51.986;5.984;2023-04-24T09:59:13;11.73;;;4.03;;
18378;SDS011;27025;51.986;5.984;2023-04-24T10:01:39;14.43;;;4.60;;
18378;SDS011;27025;51.986;5.984;2023-04-24T10:04:27;14.00;;;3.90;;
18378;SDS011;27025;51.986;5.984;2023-04-24T10:06:54;11.43;;;4.10;;
18378;SDS011;27025;51.986;5.984;2023-04-24T10:09:21;16.70;;;3.80;;
18378;SDS011;27025;51.986;5.984;2023-04-24T10:11:49;11.10;;;3.60;;
18378;SDS011;27025;51.986;5.984;2023-04-24T10:14:16;9.93;;;3.90;;
18378;SDS011;27025;51.986;5.984;2023-04-24T10:16:43;14.53;;;4.17;;
18378;SDS011;27025;51.986;5.984;2023-04-24T10:19:09;13.47;;;4.10;;
18378;SDS011;27025;51.986;5.984;2023-04-24T10:21:38;11.70;;;4.03;;
18378;SDS011;27025;51.986;5.984;2023-04-24T10:24:07;15.23;;;4.20;;
18378;SDS011;27025;51.986;5.984;2023-04-24T10:26:34;13.07;;;3.80;;
18378;SDS011;27025;51.986;5.984;2023-04-24T10:29:00;12.13;;;4.03;;
18378;SDS011;27025;51.986;5.984;2023-04-24T10:31:27;11.00;;;3.60;;
18378;SDS011;27025;51.986;5.984;2023-04-24T10:33:53;10.30;;;3.60;;
18378;SDS011;27025;51.986;5.984;2023-04-24T10:36:19;9.70;;;3.43;;
18378;SDS011;27025;51.986;5.984;2023-04-24T10:38:48;10.73;;;3.97;;
18378;SDS011;27025;51.986;5.984;2023-04-24T10:41:15;13.07;;;3.47;;
18378;SDS011;27025;51.986;5.984;2023-04-24T10:43:48;8.33;;;4.43;;
18378;SDS011;27025;51.986;5.984;2023-04-24T10:46:19;9.20;;;3.60;;
18378;SDS011;27025;51.986;5.984;2023-04-24T10:48:52;11.87;;;3.50;;
18378;SDS011;27025;51.986;5.984;2023-04-24T10:51:21;10.67;;;3.70;;
18378;SDS011;27025;51.986;5.984;2023-04-24T10:53:47;11.13;;;3.43;;
18378;SDS011;27025;51.986;5.984;2023-04-24T10:56:15;10.33;;;3.23;;
18378;SDS011;27025;51.986;5.984;2023-04-24T10:58:45;8.27;;;3.50;;
18378;SDS011;27025;51.986;5.984;2023-04-24T11:03:54;9.70;;;3.17;;
18378;SDS011;27025;51.986;5.984;2023-04-24T11:06:28;8.03;;;2.50;;
18378;SDS011;27025;51.986;5.984;2023-04-24T11:08:58;10.30;;;3.33;;
18378;SDS011;27025;51.986;5.984;2023-04-24T11:11:28;8.73;;;2.63;;
18378;SDS011;27025;51.986;5.984;2023-04-24T11:16:25;8.93;;;3.13;;
18378;SDS011;27025;51.986;5.984;2023-04-24T11:19:06;9.70;;;2.70;;
18378;SDS011;27025;51.986;5.984;2023-04-24T11:29:22;7.70;;;2.20;;
18378;SDS011;27025;51.986;5.984;2023-04-24T11:31:48;5.03;;;1.87;;
18378;SDS011;27025;51.986;5.984;2023-04-24T11:34:16;5.40;;;2.07;;
18378;SDS011;27025;51.986;5.984;2023-04-24T11:36:43;5.67;;;1.93;;
18378;SDS011;27025;51.986;5.984;2023-04-24T11:39:10;6.33;;;2.00;;
18378;SDS011;27025;51.986;5.984;2023-04-24T11:41:36;6.63;;;1.90;;
18378;SDS011;27025;51.986;5.984;2023-04-24T11:44:03;6.57;;;1.70;;
18378;SDS011;27025;51.986;5.984;2023-04-24T11:46:29;3.37;;;1.57;;
18378;SDS011;27025;51.986;5.984;2023-04-24T11:48:56;5.80;;;1.80;;
18378;SDS011;27025;51.986;5.984;2023-04-24T11:51:23;5.87;;;1.90;;
18378;SDS011;27025;51.986;5.984;2023-04-24T11:53:50;3.20;;;1.33;;
18378;SDS011;27025;51.986;5.984;2023-04-24T11:56:23;3.10;;;1.30;;
18378;SDS011;27025;51.986;5.984;2023-04-24T11:58:53;3.50;;;1.57;;
18378;SDS011;27025;51.986;5.984;2023-04-24T12:01:19;4.88;;;1.38;;
18378;SDS011;27025;51.986;5.984;2023-04-24T12:03:49;3.28;;;1.50;;
18378;SDS011;27025;51.986;5.984;2023-04-24T12:06:18;2.88;;;1.58;;
18378;SDS011;27025;51.986;5.984;2023-04-24T12:08:47;4.63;;;1.50;;
18378;SDS011;27025;51.986;5.984;2023-04-24T12:11:14;4.05;;;1.70;;
18378;SDS011;27025;51.986;5.984;2023-04-24T12:13:40;3.10;;;1.42;;
18378;SDS011;27025;51.986;5.984;2023-04-24T12:16:06;4.13;;;1.60;;
18378;SDS011;27025;51.986;5.984;2023-04-24T12:18:32;4.80;;;1.80;;
18378;SDS011;27025;51.986;5.984;2023-04-24T12:24:00;3.80;;;1.40;;
18378;SDS011;27025;51.986;5.984;2023-04-24T12:26:26;3.80;;;1.70;;
18378;SDS011;27025;51.986;5.984;2023-04-24T12:28:54;6.18;;;1.80;;
18378;SDS011;27025;51.986;5.984;2023-04-24T12:31:20;6.43;;;1.90;;
18378;SDS011;27025;51.986;5.984;2023-04-24T12:33:47;5.60;;;1.77;;
18378;SDS011;27025;51.986;5.984;2023-04-24T12:36:13;3.90;;;1.77;;
18378;SDS011;27025;51.986;5.984;2023-04-24T12:38:39;3.85;;;1.80;;
18378;SDS011;27025;51.986;5.984;2023-04-24T12:41:06;4.60;;;1.40;;
18378;SDS011;27025;51.986;5.984;2023-04-24T12:43:32;6.03;;;1.60;;
18378;SDS011;27025;51.986;5.984;2023-04-24T12:45:58;2.95;;;1.23;;
18378;SDS011;27025;51.986;5.984;2023-04-24T12:48:28;3.63;;;1.35;;
18378;SDS011;27025;51.986;5.984;2023-04-24T12:50:54;3.85;;;1.48;;
18378;SDS011;27025;51.986;5.984;2023-04-24T12:53:21;3.20;;;1.58;;
18378;SDS011;27025;51.986;5.984;2023-04-24T12:55:47;3.60;;;1.52;;
18378;SDS011;27025;51.986;5.984;2023-04-24T12:58:18;3.95;;;1.65;;
18378;SDS011;27025;51.986;5.984;2023-04-24T13:00:45;4.47;;;1.50;;
18378;SDS011;27025;51.986;5.984;2023-04-24T13:03:11;4.10;;;1.40;;
18378;SDS011;27025;51.986;5.984;2023-04-24T13:05:37;5.20;;;1.70;;
18378;SDS011;27025;51.986;5.984;2023-04-24T13:08:03;5.00;;;1.65;;
18378;SDS011;27025;51.986;5.984;2023-04-24T13:10:29;3.40;;;1.50;;
18378;SDS011;27025;51.986;5.984;2023-04-24T13:12:56;3.53;;;1.50;;
18378;SDS011;27025;51.986;5.984;2023-04-24T13:15:22;5.25;;;1.88;;
18378;SDS011;27025;51.986;5.984;2023-04-24T13:17:48;3.95;;;1.70;;
18378;SDS011;27025;51.986;5.984;2023-04-24T13:20:14;4.18;;;1.60;;
18378;SDS011;27025;51.986;5.984;2023-04-24T13:22:40;4.13;;;1.70;;
18378;SDS011;27025;51.986;5.984;2023-04-24T13:25:06;4.93;;;1.80;;
18378;SDS011;27025;51.986;5.984;2023-04-24T13:27:32;4.53;;;1.80;;
18378;SDS011;27025;51.986;5.984;2023-04-24T13:29:59;4.57;;;1.80;;
18378;SDS011;27025;51.986;5.984;2023-04-24T13:32:25;6.28;;;2.00;;
18378;SDS011;27025;51.986;5.984;2023-04-24T13:34:51;6.70;;;2.03;;
18378;SDS011;27025;51.986;5.984;2023-04-24T13:37:18;7.88;;;2.28;;
18378;SDS011;27025;51.986;5.984;2023-04-24T13:39:44;5.33;;;2.13;;
18378;SDS011;27025;51.986;5.984;2023-04-24T13:42:10;7.33;;;2.37;;
18378;SDS011;27025;51.986;5.984;2023-04-24T13:44:36;8.02;;;2.35;;
18378;SDS011;27025;51.986;5.984;2023-04-24T13:47:02;8.43;;;2.30;;
18378;SDS011;27025;51.986;5.984;2023-04-24T13:49:28;6.50;;;2.40;;
18378;SDS011;27025;51.986;5.984;2023-04-24T13:51:54;7.13;;;2.50;;
18378;SDS011;27025;51.986;5.984;2023-04-24T13:54:21;6.18;;;2.50;;
18378;SDS011;27025;51.986;5.984;2023-04-24T13:56:49;9.07;;;2.63;;
18378;SDS011;27025;51.986;5.984;2023-04-24T13:59:15;8.77;;;2.70;;
18378;SDS011;27025;51.986;5.984;2023-04-24T14:01:41;10.45;;;2.67;;
18378;SDS011;27025;51.986;5.984;2023-04-24T14:04:09;7.65;;;2.72;;
18378;SDS011;27025;51.986;5.984;2023-04-24T14:06:36;8.45;;;2.53;;
18378;SDS011;27025;51.986;5.984;2023-04-24T14:09:02;9.55;;;2.83;;
18378;SDS011;27025;51.986;5.984;2023-04-24T14:11:28;7.30;;;2.58;;
18378;SDS011;27025;51.986;5.984;2023-04-24T14:13:54;7.18;;;2.80;;
18378;SDS011;27025;51.986;5.984;2023-04-24T14:16:23;7.83;;;2.70;;
18378;SDS011;27025;51.986;5.984;2023-04-24T14:18:49;10.15;;;2.90;;
18378;SDS011;27025;51.986;5.984;2023-04-24T14:21:15;9.32;;;2.83;;
18378;SDS011;27025;51.986;5.984;2023-04-24T14:23:41;6.97;;;3.05;;
18378;SDS011;27025;51.986;5.984;2023-04-24T14:26:07;8.73;;;3.23;;
18378;SDS011;27025;51.986;5.984;2023-04-24T14:28:33;10.20;;;3.10;;
18378;SDS011;27025;51.986;5.984;2023-04-24T14:31:00;11.25;;;3.60;;
18378;SDS011;27025;51.986;5.984;2023-04-24T14:33:26;9.20;;;3.37;;
18378;SDS011;27025;51.986;5.984;2023-04-24T14:35:52;9.30;;;3.33;;
18378;SDS011;27025;51.986;5.984;2023-04-24T14:38:18;8.47;;;2.90;;
18378;SDS011;27025;51.986;5.984;2023-04-24T14:40:44;10.85;;;3.42;;
18378;SDS011;27025;51.986;5.984;2023-04-24T14:43:10;9.27;;;3.10;;
18378;SDS011;27025;51.986;5.984;2023-04-24T14:45:36;9.32;;;3.20;;
18378;SDS011;27025;51.986;5.984;2023-04-24T14:48:03;10.13;;;3.13;;